sensor_id;sensor_type;location;lat;lon;timestamp;P1;durP1;ratioP1;P2;durP2;ratioP2
14603;SDS011;7388;51.078;13.740;2022-11-06T00:00:38;7.15;;;5.38;;
14603;SDS011;7388;51.078;13.740;2022-11-06T00:03:04;7.57;;;5.90;;
14603;SDS011;7388;51.078;13.740;2022-11-06T00:05:30;14.10;;;5.75;;
14603;SDS011;7388;51.078;13.740;2022-11-06T00:08:17;8.65;;;6.57;;
14603;SDS011;7388;51.078;13.740;2022-11-06T00:10:55;9.90;;;6.35;;
14603;SDS011;7388;51.078;13.740;2022-11-06T00:13:20;13.83;;;6.60;;
14603;SDS011;7388;51.078;13.740;2022-11-06T00:15:46;6.60;;;4.40;;
14603;SDS011;7388;51.078;13.740;2022-11-06T00:18:12;7.33;;;4.97;;
14603;SDS011;7388;51.078;13.740;2022-11-06T00:20:38;8.00;;;5.83;;
14603;SDS011;7388;51.078;13.740;2022-11-06T00:23:03;8.17;;;5.77;;
14603;SDS011;7388;51.078;13.740;2022-11-06T00:25:29;5.47;;;4.90;;
14603;SDS011;7388;51.078;13.740;2022-11-06T00:27:55;8.23;;;5.30;;
14603;SDS011;7388;51.078;13.740;2022-11-06T00:30:20;7.83;;;4.43;;
14603;SDS011;7388;51.078;13.740;2022-11-06T00:32:46;7.33;;;4.90;;
14603;SDS011;7388;51.078;13.740;2022-11-06T00:35:12;6.07;;;5.40;;
14603;SDS011;7388;51.078;13.740;2022-11-06T00:37:38;5.23;;;4.73;;
14603;SDS011;7388;51.078;13.740;2022-11-06T00:40:04;5.60;;;4.97;;
14603;SDS011;7388;51.078;13.740;2022-11-06T00:42:30;7.63;;;5.68;;
14603;SDS011;7388;51.078;13.740;2022-11-06T00:44:56;7.97;;;5.20;;
14603;SDS011;7388;51.078;13.740;2022-11-06T00:47:22;5.13;;;4.63;;
14603;SDS011;7388;51.078;13.740;2022-11-06T00:49:48;8.30;;;5.23;;
14603;SDS011;7388;51.078;13.740;2022-11-06T00:52:14;6.73;;;4.63;;
14603;SDS011;7388;51.078;13.740;2022-11-06T00:54:40;5.30;;;4.80;;
14603;SDS011;7388;51.078;13.740;2022-11-06T00:57:05;8.87;;;5.43;;
14603;SDS011;7388;51.078;13.740;2022-11-06T00:59:31;5.77;;;4.73;;
14603;SDS011;7388;51.078;13.740;2022-11-06T01:01:57;8.90;;;5.50;;
14603;SDS011;7388;51.078;13.740;2022-11-06T01:04:23;7.83;;;5.50;;
14603;SDS011;7388;51.078;13.740;2022-11-06T01:06:50;8.65;;;5.75;;
14603;SDS011;7388;51.078;13.740;2022-11-06T01:09:18;6.97;;;5.13;;
14603;SDS011;7388;51.078;13.740;2022-11-06T01:11:47;6.63;;;4.72;;
14603;SDS011;7388;51.078;13.740;2022-11-06T01:14:14;6.90;;;5.35;;
14603;SDS011;7388;51.078;13.740;2022-11-06T01:16:42;5.75;;;5.15;;
14603;SDS011;7388;51.078;13.740;2022-11-06T01:19:09;7.78;;;5.57;;
14603;SDS011;7388;51.078;13.740;2022-11-06T01:21:37;8.00;;;5.13;;
14603;SDS011;7388;51.078;13.740;2022-11-06T01:24:05;6.03;;;4.47;;
14603;SDS011;7388;51.078;13.740;2022-11-06T01:26:36;9.00;;;5.18;;
14603;SDS011;7388;51.078;13.740;2022-11-06T01:29:02;6.20;;;4.85;;
14603;SDS011;7388;51.078;13.740;2022-11-06T01:31:29;8.20;;;5.43;;
14603;SDS011;7388;51.078;13.740;2022-11-06T01:33:57;6.10;;;5.05;;
14603;SDS011;7388;51.078;13.740;2022-11-06T01:36:24;6.03;;;4.97;;
14603;SDS011;7388;51.078;13.740;2022-11-06T01:38:52;7.72;;;5.88;;
14603;SDS011;7388;51.078;13.740;2022-11-06T01:41:27;6.03;;;4.85;;
14603;SDS011;7388;51.078;13.740;2022-11-06T01:46:57;9.30;;;5.00;;
14603;SDS011;7388;51.078;13.740;2022-11-06T01:49:28;5.93;;;5.00;;
14603;SDS011;7388;51.078;13.740;2022-11-06T01:52:02;6.85;;;5.55;;
14603;SDS011;7388;51.078;13.740;2022-11-06T01:54:32;7.10;;;4.97;;
14603;SDS011;7388;51.078;13.740;2022-11-06T01:57:00;7.63;;;6.55;;
14603;SDS011;7388;51.078;13.740;2022-11-06T01:59:28;5.85;;;4.60;;
14603;SDS011;7388;51.078;13.740;2022-11-06T02:01:57;6.68;;;5.68;;
14603;SDS011;7388;51.078;13.740;2022-11-06T02:04:24;6.13;;;5.20;;
14603;SDS011;7388;51.078;13.740;2022-11-06T02:06:52;8.02;;;5.03;;
14603;SDS011;7388;51.078;13.740;2022-11-06T02:09:18;8.88;;;5.30;;
14603;SDS011;7388;51.078;13.740;2022-11-06T02:11:45;6.85;;;4.80;;
14603;SDS011;7388;51.078;13.740;2022-11-06T02:16:50;8.63;;;5.72;;
14603;SDS011;7388;51.078;13.740;2022-11-06T02:19:27;6.28;;;4.97;;
14603;SDS011;7388;51.078;13.740;2022-11-06T02:22:13;7.05;;;5.40;;
14603;SDS011;7388;51.078;13.740;2022-11-06T02:27:34;7.97;;;5.35;;
14603;SDS011;7388;51.078;13.740;2022-11-06T02:30:07;8.40;;;5.40;;
14603;SDS011;7388;51.078;13.740;2022-11-06T02:32:39;5.38;;;4.25;;
14603;SDS011;7388;51.078;13.740;2022-11-06T02:35:17;6.70;;;5.40;;
14603;SDS011;7388;51.078;13.740;2022-11-06T02:37:51;7.50;;;5.45;;
14603;SDS011;7388;51.078;13.740;2022-11-06T02:40:22;6.65;;;4.85;;
14603;SDS011;7388;51.078;13.740;2022-11-06T02:42:52;6.20;;;5.43;;
14603;SDS011;7388;51.078;13.740;2022-11-06T02:45:19;7.38;;;5.72;;
14603;SDS011;7388;51.078;13.740;2022-11-06T02:47:48;11.82;;;6.70;;
14603;SDS011;7388;51.078;13.740;2022-11-06T02:50:23;5.05;;;4.40;;
14603;SDS011;7388;51.078;13.740;2022-11-06T02:53:05;9.50;;;5.82;;
14603;SDS011;7388;51.078;13.740;2022-11-06T02:58:03;7.45;;;5.30;;
14603;SDS011;7388;51.078;13.740;2022-11-06T03:00:53;10.10;;;5.60;;
14603;SDS011;7388;51.078;13.740;2022-11-06T03:03:27;9.48;;;5.75;;
14603;SDS011;7388;51.078;13.740;2022-11-06T03:06:31;7.63;;;5.07;;
14603;SDS011;7388;51.078;13.740;2022-11-06T03:08:51;6.88;;;5.63;;
14603;SDS011;7388;51.078;13.740;2022-11-06T03:11:27;6.38;;;5.65;;
14603;SDS011;7388;51.078;13.740;2022-11-06T03:16:37;6.22;;;4.97;;
14603;SDS011;7388;51.078;13.740;2022-11-06T03:19:22;9.43;;;5.03;;
14603;SDS011;7388;51.078;13.740;2022-11-06T03:22:05;7.35;;;5.00;;
14603;SDS011;7388;51.078;13.740;2022-11-06T03:24:41;8.05;;;5.75;;
14603;SDS011;7388;51.078;13.740;2022-11-06T03:27:16;10.30;;;6.57;;
14603;SDS011;7388;51.078;13.740;2022-11-06T03:29:50;7.57;;;5.20;;
14603;SDS011;7388;51.078;13.740;2022-11-06T03:32:33;8.65;;;6.47;;
14603;SDS011;7388;51.078;13.740;2022-11-06T03:35:14;6.97;;;5.00;;
14603;SDS011;7388;51.078;13.740;2022-11-06T03:40:28;6.35;;;5.50;;
14603;SDS011;7388;51.078;13.740;2022-11-06T03:42:59;7.45;;;4.75;;
14603;SDS011;7388;51.078;13.740;2022-11-06T03:45:28;7.63;;;5.60;;
14603;SDS011;7388;51.078;13.740;2022-11-06T03:48:00;5.78;;;5.10;;
14603;SDS011;7388;51.078;13.740;2022-11-06T03:50:33;6.60;;;5.80;;
14603;SDS011;7388;51.078;13.740;2022-11-06T03:53:05;7.30;;;4.80;;
14603;SDS011;7388;51.078;13.740;2022-11-06T03:55:49;6.32;;;5.20;;
14603;SDS011;7388;51.078;13.740;2022-11-06T03:58:22;6.50;;;5.43;;
14603;SDS011;7388;51.078;13.740;2022-11-06T04:00:52;5.38;;;4.88;;
14603;SDS011;7388;51.078;13.740;2022-11-06T04:03:24;8.05;;;5.18;;
14603;SDS011;7388;51.078;13.740;2022-11-06T04:06:04;4.95;;;4.15;;
14603;SDS011;7388;51.078;13.740;2022-11-06T04:08:36;5.60;;;4.35;;
14603;SDS011;7388;51.078;13.740;2022-11-06T04:11:23;6.50;;;4.47;;
14603;SDS011;7388;51.078;13.740;2022-11-06T04:14:10;7.38;;;5.55;;
14603;SDS011;7388;51.078;13.740;2022-11-06T04:16:44;6.18;;;5.03;;
14603;SDS011;7388;51.078;13.740;2022-11-06T04:19:15;6.22;;;5.03;;
14603;SDS011;7388;51.078;13.740;2022-11-06T04:21:55;4.55;;;3.67;;
14603;SDS011;7388;51.078;13.740;2022-11-06T04:27:54;8.77;;;5.28;;
14603;SDS011;7388;51.078;13.740;2022-11-06T04:30:42;7.32;;;4.45;;
14603;SDS011;7388;51.078;13.740;2022-11-06T04:33:30;7.53;;;5.25;;
14603;SDS011;7388;51.078;13.740;2022-11-06T04:39:17;6.55;;;4.82;;
14603;SDS011;7388;51.078;13.740;2022-11-06T04:44:48;5.90;;;5.10;;
14603;SDS011;7388;51.078;13.740;2022-11-06T04:47:20;5.93;;;4.68;;
14603;SDS011;7388;51.078;13.740;2022-11-06T04:49:49;5.63;;;4.22;;
14603;SDS011;7388;51.078;13.740;2022-11-06T04:52:18;6.57;;;4.70;;
14603;SDS011;7388;51.078;13.740;2022-11-06T04:54:47;5.97;;;4.72;;
14603;SDS011;7388;51.078;13.740;2022-11-06T04:57:14;5.20;;;4.15;;
14603;SDS011;7388;51.078;13.740;2022-11-06T04:59:39;7.63;;;4.50;;
14603;SDS011;7388;51.078;13.740;2022-11-06T05:02:06;8.50;;;5.00;;
14603;SDS011;7388;51.078;13.740;2022-11-06T05:04:31;8.43;;;5.68;;
14603;SDS011;7388;51.078;13.740;2022-11-06T05:06:57;6.60;;;4.87;;
14603;SDS011;7388;51.078;13.740;2022-11-06T05:09:23;5.50;;;4.57;;
14603;SDS011;7388;51.078;13.740;2022-11-06T05:11:49;5.93;;;4.80;;
14603;SDS011;7388;51.078;13.740;2022-11-06T05:14:15;7.95;;;4.75;;
14603;SDS011;7388;51.078;13.740;2022-11-06T05:16:41;9.20;;;5.57;;
14603;SDS011;7388;51.078;13.740;2022-11-06T05:19:07;4.77;;;3.93;;
14603;SDS011;7388;51.078;13.740;2022-11-06T05:21:33;7.30;;;5.47;;
14603;SDS011;7388;51.078;13.740;2022-11-06T05:24:17;5.55;;;4.03;;
14603;SDS011;7388;51.078;13.740;2022-11-06T05:26:43;9.90;;;6.03;;
14603;SDS011;7388;51.078;13.740;2022-11-06T05:29:09;6.13;;;4.27;;
14603;SDS011;7388;51.078;13.740;2022-11-06T05:31:36;7.03;;;5.25;;
14603;SDS011;7388;51.078;13.740;2022-11-06T05:34:02;8.37;;;5.60;;
14603;SDS011;7388;51.078;13.740;2022-11-06T05:36:28;7.88;;;4.68;;
14603;SDS011;7388;51.078;13.740;2022-11-06T05:38:53;5.53;;;4.40;;
14603;SDS011;7388;51.078;13.740;2022-11-06T05:41:19;6.13;;;4.40;;
14603;SDS011;7388;51.078;13.740;2022-11-06T05:43:45;7.70;;;4.77;;
14603;SDS011;7388;51.078;13.740;2022-11-06T05:46:10;6.30;;;4.90;;
14603;SDS011;7388;51.078;13.740;2022-11-06T05:48:36;13.90;;;5.83;;
14603;SDS011;7388;51.078;13.740;2022-11-06T05:51:03;8.50;;;5.30;;
14603;SDS011;7388;51.078;13.740;2022-11-06T05:53:31;5.97;;;4.40;;
14603;SDS011;7388;51.078;13.740;2022-11-06T05:55:58;4.95;;;4.05;;
14603;SDS011;7388;51.078;13.740;2022-11-06T05:58:24;8.00;;;4.60;;
14603;SDS011;7388;51.078;13.740;2022-11-06T06:00:52;6.95;;;5.00;;
14603;SDS011;7388;51.078;13.740;2022-11-06T06:03:19;5.97;;;5.38;;
14603;SDS011;7388;51.078;13.740;2022-11-06T06:05:45;5.70;;;4.80;;
14603;SDS011;7388;51.078;13.740;2022-11-06T06:08:11;6.55;;;4.97;;
14603;SDS011;7388;51.078;13.740;2022-11-06T06:10:41;6.33;;;3.90;;
14603;SDS011;7388;51.078;13.740;2022-11-06T06:13:07;6.00;;;4.70;;
14603;SDS011;7388;51.078;13.740;2022-11-06T06:15:33;6.63;;;4.53;;
14603;SDS011;7388;51.078;13.740;2022-11-06T06:17:58;9.73;;;5.53;;
14603;SDS011;7388;51.078;13.740;2022-11-06T06:20:24;7.87;;;5.90;;
14603;SDS011;7388;51.078;13.740;2022-11-06T06:22:53;6.00;;;4.60;;
14603;SDS011;7388;51.078;13.740;2022-11-06T06:25:20;6.20;;;4.97;;
14603;SDS011;7388;51.078;13.740;2022-11-06T06:27:46;6.10;;;4.20;;
14603;SDS011;7388;51.078;13.740;2022-11-06T06:30:12;5.60;;;4.50;;
14603;SDS011;7388;51.078;13.740;2022-11-06T06:32:38;9.85;;;5.00;;
14603;SDS011;7388;51.078;13.740;2022-11-06T06:35:04;6.30;;;5.10;;
14603;SDS011;7388;51.078;13.740;2022-11-06T06:37:30;8.32;;;5.15;;
14603;SDS011;7388;51.078;13.740;2022-11-06T06:39:56;6.50;;;4.63;;
14603;SDS011;7388;51.078;13.740;2022-11-06T06:42:21;5.70;;;4.27;;
14603;SDS011;7388;51.078;13.740;2022-11-06T06:44:47;11.03;;;5.70;;
14603;SDS011;7388;51.078;13.740;2022-11-06T06:47:13;6.70;;;5.93;;
14603;SDS011;7388;51.078;13.740;2022-11-06T06:49:43;9.15;;;4.53;;
14603;SDS011;7388;51.078;13.740;2022-11-06T06:52:09;8.82;;;4.82;;
14603;SDS011;7388;51.078;13.740;2022-11-06T06:54:35;6.30;;;4.80;;
14603;SDS011;7388;51.078;13.740;2022-11-06T06:57:01;6.80;;;5.03;;
14603;SDS011;7388;51.078;13.740;2022-11-06T06:59:27;7.85;;;5.38;;
14603;SDS011;7388;51.078;13.740;2022-11-06T07:01:53;10.23;;;5.20;;
14603;SDS011;7388;51.078;13.740;2022-11-06T07:04:20;5.60;;;5.10;;
14603;SDS011;7388;51.078;13.740;2022-11-06T07:06:45;7.23;;;5.83;;
14603;SDS011;7388;51.078;13.740;2022-11-06T07:09:11;8.30;;;5.97;;
14603;SDS011;7388;51.078;13.740;2022-11-06T07:11:37;7.43;;;5.60;;
14603;SDS011;7388;51.078;13.740;2022-11-06T07:14:03;8.20;;;5.38;;
14603;SDS011;7388;51.078;13.740;2022-11-06T07:16:29;6.50;;;5.60;;
14603;SDS011;7388;51.078;13.740;2022-11-06T07:18:56;8.20;;;5.93;;
14603;SDS011;7388;51.078;13.740;2022-11-06T07:21:22;8.48;;;6.28;;
14603;SDS011;7388;51.078;13.740;2022-11-06T07:23:49;9.50;;;7.32;;
14603;SDS011;7388;51.078;13.740;2022-11-06T07:26:15;8.90;;;6.40;;
14603;SDS011;7388;51.078;13.740;2022-11-06T07:28:41;11.57;;;7.78;;
14603;SDS011;7388;51.078;13.740;2022-11-06T07:31:07;16.40;;;6.70;;
14603;SDS011;7388;51.078;13.740;2022-11-06T07:33:34;11.73;;;7.18;;
14603;SDS011;7388;51.078;13.740;2022-11-06T07:36:01;8.43;;;6.87;;
14603;SDS011;7388;51.078;13.740;2022-11-06T07:38:31;12.00;;;6.78;;
14603;SDS011;7388;51.078;13.740;2022-11-06T07:41:06;11.55;;;7.88;;
14603;SDS011;7388;51.078;13.740;2022-11-06T07:43:34;11.30;;;7.95;;
14603;SDS011;7388;51.078;13.740;2022-11-06T07:46:01;10.50;;;8.65;;
14603;SDS011;7388;51.078;13.740;2022-11-06T07:48:29;13.00;;;9.32;;
14603;SDS011;7388;51.078;13.740;2022-11-06T07:50:55;11.32;;;9.48;;
14603;SDS011;7388;51.078;13.740;2022-11-06T07:53:22;11.18;;;8.32;;
14603;SDS011;7388;51.078;13.740;2022-11-06T07:55:48;11.40;;;7.95;;
14603;SDS011;7388;51.078;13.740;2022-11-06T07:58:15;12.70;;;8.15;;
14603;SDS011;7388;51.078;13.740;2022-11-06T08:00:52;9.95;;;7.60;;
14603;SDS011;7388;51.078;13.740;2022-11-06T08:03:19;9.43;;;7.10;;
14603;SDS011;7388;51.078;13.740;2022-11-06T08:05:45;10.80;;;8.75;;
14603;SDS011;7388;51.078;13.740;2022-11-06T08:08:12;12.30;;;8.82;;
14603;SDS011;7388;51.078;13.740;2022-11-06T08:10:38;15.45;;;10.82;;
14603;SDS011;7388;51.078;13.740;2022-11-06T08:13:07;12.15;;;8.40;;
14603;SDS011;7388;51.078;13.740;2022-11-06T08:15:38;10.00;;;8.98;;
14603;SDS011;7388;51.078;13.740;2022-11-06T08:18:05;11.93;;;9.45;;
14603;SDS011;7388;51.078;13.740;2022-11-06T08:20:32;9.52;;;7.10;;
14603;SDS011;7388;51.078;13.740;2022-11-06T08:23:03;11.60;;;9.23;;
14603;SDS011;7388;51.078;13.740;2022-11-06T08:25:31;14.35;;;8.43;;
14603;SDS011;7388;51.078;13.740;2022-11-06T08:27:57;12.70;;;9.00;;
14603;SDS011;7388;51.078;13.740;2022-11-06T08:30:24;12.90;;;7.88;;
14603;SDS011;7388;51.078;13.740;2022-11-06T08:32:51;13.13;;;6.93;;
14603;SDS011;7388;51.078;13.740;2022-11-06T08:35:17;11.02;;;8.50;;
14603;SDS011;7388;51.078;13.740;2022-11-06T08:37:46;14.05;;;8.32;;
14603;SDS011;7388;51.078;13.740;2022-11-06T08:40:11;10.00;;;7.07;;
14603;SDS011;7388;51.078;13.740;2022-11-06T08:42:37;10.57;;;7.53;;
14603;SDS011;7388;51.078;13.740;2022-11-06T08:45:04;9.27;;;7.50;;
14603;SDS011;7388;51.078;13.740;2022-11-06T08:47:30;11.73;;;9.05;;
14603;SDS011;7388;51.078;13.740;2022-11-06T08:49:56;12.40;;;8.33;;
14603;SDS011;7388;51.078;13.740;2022-11-06T08:52:22;11.73;;;8.63;;
14603;SDS011;7388;51.078;13.740;2022-11-06T08:54:47;10.47;;;7.47;;
14603;SDS011;7388;51.078;13.740;2022-11-06T08:57:13;10.83;;;8.10;;
14603;SDS011;7388;51.078;13.740;2022-11-06T08:59:39;7.57;;;6.77;;
14603;SDS011;7388;51.078;13.740;2022-11-06T09:02:11;10.65;;;8.25;;
14603;SDS011;7388;51.078;13.740;2022-11-06T09:04:37;8.82;;;6.93;;
14603;SDS011;7388;51.078;13.740;2022-11-06T09:07:03;9.40;;;7.47;;
14603;SDS011;7388;51.078;13.740;2022-11-06T09:09:29;13.80;;;8.37;;
14603;SDS011;7388;51.078;13.740;2022-11-06T09:11:58;11.18;;;7.50;;
14603;SDS011;7388;51.078;13.740;2022-11-06T09:14:24;11.02;;;7.30;;
14603;SDS011;7388;51.078;13.740;2022-11-06T09:16:50;11.43;;;8.38;;
14603;SDS011;7388;51.078;13.740;2022-11-06T09:19:16;10.60;;;7.67;;
14603;SDS011;7388;51.078;13.740;2022-11-06T09:21:42;10.57;;;8.30;;
14603;SDS011;7388;51.078;13.740;2022-11-06T09:24:08;10.40;;;7.30;;
14603;SDS011;7388;51.078;13.740;2022-11-06T09:26:33;12.03;;;8.47;;
14603;SDS011;7388;51.078;13.740;2022-11-06T09:28:59;10.07;;;7.77;;
14603;SDS011;7388;51.078;13.740;2022-11-06T09:31:25;12.30;;;8.73;;
14603;SDS011;7388;51.078;13.740;2022-11-06T09:33:50;12.90;;;7.60;;
14603;SDS011;7388;51.078;13.740;2022-11-06T09:36:16;10.87;;;7.40;;
14603;SDS011;7388;51.078;13.740;2022-11-06T09:38:42;13.77;;;8.73;;
14603;SDS011;7388;51.078;13.740;2022-11-06T09:41:15;9.40;;;7.50;;
14603;SDS011;7388;51.078;13.740;2022-11-06T09:43:56;11.65;;;8.02;;
14603;SDS011;7388;51.078;13.740;2022-11-06T09:46:30;9.05;;;6.72;;
14603;SDS011;7388;51.078;13.740;2022-11-06T09:49:05;9.60;;;7.57;;
14603;SDS011;7388;51.078;13.740;2022-11-06T09:52:00;12.45;;;8.13;;
14603;SDS011;7388;51.078;13.740;2022-11-06T09:54:51;11.68;;;7.20;;
14603;SDS011;7388;51.078;13.740;2022-11-06T09:59:58;9.90;;;7.97;;
14603;SDS011;7388;51.078;13.740;2022-11-06T10:07:48;8.95;;;7.07;;
14603;SDS011;7388;51.078;13.740;2022-11-06T10:10:18;12.80;;;6.20;;
14603;SDS011;7388;51.078;13.740;2022-11-06T10:13:03;8.98;;;7.22;;
14603;SDS011;7388;51.078;13.740;2022-11-06T10:15:44;11.68;;;8.30;;
14603;SDS011;7388;51.078;13.740;2022-11-06T10:19:03;7.90;;;6.35;;
14603;SDS011;7388;51.078;13.740;2022-11-06T10:27:11;8.40;;;6.47;;
14603;SDS011;7388;51.078;13.740;2022-11-06T10:34:52;8.35;;;6.05;;
14603;SDS011;7388;51.078;13.740;2022-11-06T10:37:27;8.45;;;5.57;;
14603;SDS011;7388;51.078;13.740;2022-11-06T10:39:59;8.23;;;5.50;;
14603;SDS011;7388;51.078;13.740;2022-11-06T10:42:35;6.28;;;4.88;;
14603;SDS011;7388;51.078;13.740;2022-11-06T10:45:03;5.43;;;4.57;;
14603;SDS011;7388;51.078;13.740;2022-11-06T10:47:35;6.75;;;5.90;;
14603;SDS011;7388;51.078;13.740;2022-11-06T10:50:10;5.70;;;4.03;;
14603;SDS011;7388;51.078;13.740;2022-11-06T11:00:41;7.72;;;6.13;;
14603;SDS011;7388;51.078;13.740;2022-11-06T11:03:15;6.40;;;5.73;;
14603;SDS011;7388;51.078;13.740;2022-11-06T11:05:53;6.05;;;4.97;;
14603;SDS011;7388;51.078;13.740;2022-11-06T11:13:38;5.22;;;4.25;;
14603;SDS011;7388;51.078;13.740;2022-11-06T11:16:12;6.85;;;4.28;;
14603;SDS011;7388;51.078;13.740;2022-11-06T11:18:43;7.80;;;4.40;;
14603;SDS011;7388;51.078;13.740;2022-11-06T11:23:40;3.63;;;2.95;;
14603;SDS011;7388;51.078;13.740;2022-11-06T11:26:17;3.13;;;2.80;;
14603;SDS011;7388;51.078;13.740;2022-11-06T11:28:56;4.47;;;3.42;;
14603;SDS011;7388;51.078;13.740;2022-11-06T11:31:28;3.20;;;2.65;;
14603;SDS011;7388;51.078;13.740;2022-11-06T11:33:56;7.43;;;5.70;;
14603;SDS011;7388;51.078;13.740;2022-11-06T11:36:24;4.80;;;2.60;;
14603;SDS011;7388;51.078;13.740;2022-11-06T11:38:50;3.17;;;2.75;;
14603;SDS011;7388;51.078;13.740;2022-11-06T11:41:21;2.88;;;2.58;;
14603;SDS011;7388;51.078;13.740;2022-11-06T11:44:21;3.13;;;2.83;;
14603;SDS011;7388;51.078;13.740;2022-11-06T11:46:48;4.00;;;2.90;;
14603;SDS011;7388;51.078;13.740;2022-11-06T11:49:32;3.50;;;2.85;;
14603;SDS011;7388;51.078;13.740;2022-11-06T11:52:03;3.78;;;2.90;;
14603;SDS011;7388;51.078;13.740;2022-11-06T11:54:35;3.17;;;2.30;;
14603;SDS011;7388;51.078;13.740;2022-11-06T11:57:03;4.28;;;2.67;;
14603;SDS011;7388;51.078;13.740;2022-11-06T11:59:48;3.92;;;3.00;;
14603;SDS011;7388;51.078;13.740;2022-11-06T12:05:14;5.05;;;3.92;;
14603;SDS011;7388;51.078;13.740;2022-11-06T12:07:55;4.28;;;3.60;;
14603;SDS011;7388;51.078;13.740;2022-11-06T12:10:29;5.40;;;3.70;;
14603;SDS011;7388;51.078;13.740;2022-11-06T12:13:03;5.90;;;3.75;;
14603;SDS011;7388;51.078;13.740;2022-11-06T12:15:44;3.55;;;3.20;;
14603;SDS011;7388;51.078;13.740;2022-11-06T12:18:29;4.07;;;2.67;;
14603;SDS011;7388;51.078;13.740;2022-11-06T12:28:43;3.05;;;2.33;;
14603;SDS011;7388;51.078;13.740;2022-11-06T12:31:17;4.78;;;3.00;;
14603;SDS011;7388;51.078;13.740;2022-11-06T12:33:56;3.13;;;2.83;;
14603;SDS011;7388;51.078;13.740;2022-11-06T12:36:24;3.20;;;2.90;;
14603;SDS011;7388;51.078;13.740;2022-11-06T12:38:56;3.80;;;2.50;;
14603;SDS011;7388;51.078;13.740;2022-11-06T12:41:28;3.80;;;2.58;;
14603;SDS011;7388;51.078;13.740;2022-11-06T12:43:58;5.13;;;4.57;;
14603;SDS011;7388;51.078;13.740;2022-11-06T13:01:26;4.40;;;3.10;;
14603;SDS011;7388;51.078;13.740;2022-11-06T13:09:54;5.53;;;4.80;;
14603;SDS011;7388;51.078;13.740;2022-11-06T13:15:26;4.83;;;4.30;;
14603;SDS011;7388;51.078;13.740;2022-11-06T13:18:12;4.50;;;3.80;;
14603;SDS011;7388;51.078;13.740;2022-11-06T13:20:47;4.95;;;3.78;;
14603;SDS011;7388;51.078;13.740;2022-11-06T13:23:15;20.30;;;17.10;;
14603;SDS011;7388;51.078;13.740;2022-11-06T13:31:15;4.43;;;3.25;;
14603;SDS011;7388;51.078;13.740;2022-11-06T13:33:46;8.07;;;4.75;;
14603;SDS011;7388;51.078;13.740;2022-11-06T13:36:15;6.10;;;4.00;;
14603;SDS011;7388;51.078;13.740;2022-11-06T13:41:46;6.55;;;5.57;;
14603;SDS011;7388;51.078;13.740;2022-11-06T13:44:12;7.40;;;5.63;;
14603;SDS011;7388;51.078;13.740;2022-11-06T14:06:13;6.43;;;4.13;;
14603;SDS011;7388;51.078;13.740;2022-11-06T14:08:44;7.47;;;5.18;;
14603;SDS011;7388;51.078;13.740;2022-11-06T14:13:54;8.25;;;6.40;;
14603;SDS011;7388;51.078;13.740;2022-11-06T14:16:40;7.30;;;5.15;;
14603;SDS011;7388;51.078;13.740;2022-11-06T14:19:21;7.93;;;6.35;;
14603;SDS011;7388;51.078;13.740;2022-11-06T14:24:36;11.50;;;7.65;;
14603;SDS011;7388;51.078;13.740;2022-11-06T14:27:10;10.18;;;7.80;;
14603;SDS011;7388;51.078;13.740;2022-11-06T14:29:57;12.00;;;8.80;;
14603;SDS011;7388;51.078;13.740;2022-11-06T14:32:42;9.23;;;7.97;;
14603;SDS011;7388;51.078;13.740;2022-11-06T14:40:41;12.80;;;10.02;;
14603;SDS011;7388;51.078;13.740;2022-11-06T14:43:15;12.75;;;10.55;;
14603;SDS011;7388;51.078;13.740;2022-11-06T14:45:53;15.80;;;10.50;;
14603;SDS011;7388;51.078;13.740;2022-11-06T14:48:33;11.43;;;8.93;;
14603;SDS011;7388;51.078;13.740;2022-11-06T14:51:03;17.95;;;10.20;;
14603;SDS011;7388;51.078;13.740;2022-11-06T14:53:37;14.13;;;9.07;;
14603;SDS011;7388;51.078;13.740;2022-11-06T14:56:07;13.95;;;8.98;;
14603;SDS011;7388;51.078;13.740;2022-11-06T14:58:38;12.68;;;10.25;;
14603;SDS011;7388;51.078;13.740;2022-11-06T15:01:12;13.70;;;9.23;;
14603;SDS011;7388;51.078;13.740;2022-11-06T15:03:50;13.25;;;10.05;;
14603;SDS011;7388;51.078;13.740;2022-11-06T15:06:42;15.35;;;10.00;;
14603;SDS011;7388;51.078;13.740;2022-11-06T15:16:49;15.50;;;9.87;;
14603;SDS011;7388;51.078;13.740;2022-11-06T15:21:47;15.10;;;11.77;;
14603;SDS011;7388;51.078;13.740;2022-11-06T15:24:19;19.70;;;11.80;;
14603;SDS011;7388;51.078;13.740;2022-11-06T15:27:15;15.63;;;10.57;;
14603;SDS011;7388;51.078;13.740;2022-11-06T15:29:46;15.65;;;9.80;;
14603;SDS011;7388;51.078;13.740;2022-11-06T15:32:23;12.30;;;9.50;;
14603;SDS011;7388;51.078;13.740;2022-11-06T15:35:02;17.00;;;12.70;;
14603;SDS011;7388;51.078;13.740;2022-11-06T15:37:38;13.93;;;10.02;;
14603;SDS011;7388;51.078;13.740;2022-11-06T15:40:26;17.45;;;10.52;;
14603;SDS011;7388;51.078;13.740;2022-11-06T15:42:55;15.52;;;9.90;;
14603;SDS011;7388;51.078;13.740;2022-11-06T15:45:26;19.70;;;10.98;;
14603;SDS011;7388;51.078;13.740;2022-11-06T15:47:59;17.63;;;11.02;;
14603;SDS011;7388;51.078;13.740;2022-11-06T15:50:28;17.80;;;12.82;;
14603;SDS011;7388;51.078;13.740;2022-11-06T15:55:55;15.07;;;10.57;;
14603;SDS011;7388;51.078;13.740;2022-11-06T15:58:27;13.35;;;10.20;;
14603;SDS011;7388;51.078;13.740;2022-11-06T16:00:58;14.70;;;11.18;;
14603;SDS011;7388;51.078;13.740;2022-11-06T16:03:25;13.57;;;9.52;;
14603;SDS011;7388;51.078;13.740;2022-11-06T16:05:53;17.30;;;10.23;;
14603;SDS011;7388;51.078;13.740;2022-11-06T16:08:23;14.30;;;10.45;;
14603;SDS011;7388;51.078;13.740;2022-11-06T16:10:50;14.48;;;10.88;;
14603;SDS011;7388;51.078;13.740;2022-11-06T16:13:17;17.63;;;10.93;;
14603;SDS011;7388;51.078;13.740;2022-11-06T16:15:46;15.85;;;11.00;;
14603;SDS011;7388;51.078;13.740;2022-11-06T16:21:09;14.23;;;10.43;;
14603;SDS011;7388;51.078;13.740;2022-11-06T16:23:46;18.38;;;11.70;;
14603;SDS011;7388;51.078;13.740;2022-11-06T16:26:23;12.45;;;10.07;;
14603;SDS011;7388;51.078;13.740;2022-11-06T16:29:02;13.65;;;10.13;;
14603;SDS011;7388;51.078;13.740;2022-11-06T16:31:34;12.38;;;9.70;;
14603;SDS011;7388;51.078;13.740;2022-11-06T16:34:02;14.40;;;9.48;;
14603;SDS011;7388;51.078;13.740;2022-11-06T16:36:30;14.70;;;10.18;;
14603;SDS011;7388;51.078;13.740;2022-11-06T16:49:41;17.48;;;11.52;;
14603;SDS011;7388;51.078;13.740;2022-11-06T16:54:48;17.00;;;11.23;;
14603;SDS011;7388;51.078;13.740;2022-11-06T16:57:17;19.77;;;11.73;;
14603;SDS011;7388;51.078;13.740;2022-11-06T17:00:46;15.25;;;10.15;;
14603;SDS011;7388;51.078;13.740;2022-11-06T17:02:44;14.88;;;11.25;;
14603;SDS011;7388;51.078;13.740;2022-11-06T17:05:26;16.25;;;11.10;;
14603;SDS011;7388;51.078;13.740;2022-11-06T17:10:43;14.32;;;11.15;;
14603;SDS011;7388;51.078;13.740;2022-11-06T17:13:22;16.73;;;11.80;;
14603;SDS011;7388;51.078;13.740;2022-11-06T17:15:56;20.52;;;11.82;;
14603;SDS011;7388;51.078;13.740;2022-11-06T17:20:55;14.57;;;10.68;;
14603;SDS011;7388;51.078;13.740;2022-11-06T17:23:23;18.92;;;11.38;;
14603;SDS011;7388;51.078;13.740;2022-11-06T17:25:50;17.13;;;11.70;;
14603;SDS011;7388;51.078;13.740;2022-11-06T17:28:18;16.13;;;10.27;;
14603;SDS011;7388;51.078;13.740;2022-11-06T17:30:45;16.67;;;11.75;;
14603;SDS011;7388;51.078;13.740;2022-11-06T17:33:11;16.08;;;9.93;;
14603;SDS011;7388;51.078;13.740;2022-11-06T17:35:37;14.73;;;10.50;;
14603;SDS011;7388;51.078;13.740;2022-11-06T17:38:03;19.47;;;11.33;;
14603;SDS011;7388;51.078;13.740;2022-11-06T17:40:29;17.90;;;12.57;;
14603;SDS011;7388;51.078;13.740;2022-11-06T17:42:55;15.13;;;11.20;;
14603;SDS011;7388;51.078;13.740;2022-11-06T17:45:21;13.95;;;9.80;;
14603;SDS011;7388;51.078;13.740;2022-11-06T17:47:47;18.58;;;13.80;;
14603;SDS011;7388;51.078;13.740;2022-11-06T17:50:13;17.80;;;13.00;;